UK Observations

EGAA 191950Z 00000KT CAVOK 05/04 Q1007 EGAC 191950Z AUTO 33004KT 290V020 9999 BKN047/// 10/06 Q1007 EGBB 191950Z 26004KT CAVOK 09/07 Q1003 EGCC 191950Z AUTO 35006KT 9999 BKN049 10/06 Q1003 NOSIG EGDM 191950Z AUTO 20005KT //// // NCD 08/06 Q1004 EGDR 191950Z AUTO 32006KT 9999 // NCD 09/07 Q1006 EGDY 191950Z AUTO 20001KT 9999 NCD 06/05 Q1004 EGFF 191950Z AUTO 32005KT 9999 NCD 09/07 Q1004 EGGD 191950Z AUTO 26005KT 9999 NCD 08/06 Q1004 EGGP 191950Z 35007KT 9999 FEW045 09/08 Q1004 EGGW 191950Z AUTO 22004KT 9999 NCD 07/06 Q1003 EGHH 191950Z 31001KT 9999 MIFG NSC 06/06 Q1004 EGHI 191950Z 00000KT 9999 MIFG 06/05 Q1005 EGJB 191950Z 31002KT 9999 FEW023 11/08 Q1005 EGJJ 191950Z 31002KT 9999 FEW022 11/09 Q1005 EGKB 191950Z 23006KT CAVOK 08/07 Q1004 EGKK 191950Z 22002KT CAVOK 08/07 Q1004 EGLC 191950Z AUTO 24005KT 9999 NCD 12/07 Q1004 EGLF 191950Z AUTO 25006KT 9999 NCD 07/06 Q1004 EGLL 191950Z AUTO 25007KT 9999 NCD 11/08 Q1004 NOSIG EGMC 191950Z 25003KT CAVOK 07/06 Q1004 EGMD 191950Z AUTO 26005KT 9999 NCD 11/08 Q1004 EGNH 191950Z 03010KT 9999 FEW025 10/06 Q1004 EGNJ 191950Z 27007KT 9999 FEW025 09/08 Q1002 EGNM 191950Z 30010KT 9999 FEW024 BKN036 08/05 Q1002 EGNS 191950Z 34008KT 9999 FEW025 10/05 Q1005 EGNT 191950Z 33009KT 9999 SCT035 09/08 Q1002 EGNV 191950Z 32013KT 9999 FEW019 BKN020 09/07 Q1002 EGNX 191950Z 25007KT 9999 SCT028 09/08 Q1002 EGOS 191950Z AUTO 30006KT 9999 FEW042/// 08/06 Q1003 EGOV 191950Z AUTO 01007KT 9999 FEW043/// BKN049/// 10/07 Q1005 EGPA 191950Z AUTO 02020KT 9999 SCT035/// 09/04 Q1008 EGPB 191950Z AUTO 03019KT 9999 OVC041/// 08/04 Q1007 EGPC 191950Z AUTO 03021KT 9999 BKN024/// BKN030/// 09/05 Q1008 EGPD 191950Z 35015KT 9999 FEW038 SCT048 09/06 Q1004 NOSIG EGPE 191950Z 01019KT 9999 VCSH FEW020 SCT038 09/06 Q1008 EGPF 191950Z AUTO 32004KT 9999 SCT043 BKN049 08/05 Q1006 EGPH 191950Z VRB03KT 9999 FEW035 08/06 Q1005 EGPK 191950Z 00000KT 9999 FEW030 08/05 Q1006 EGPL 191950Z AUTO 01012KT 9999 BKN046/// 09/08 Q1011 EGPM 191950Z AUTO 03022KT 9999 FEW011/// BKN020/// BKN035/// 08/04 Q1008 EGPO 191950Z AUTO 02018G28KT 9999 SCT020/// BKN024/// 10/08 Q1011 EGQK 191950Z AUTO 03021KT 9999 FEW042/// BKN070/// 09/06 Q1007 RERA EGQL 191950Z 32005KT 9999 FEW030 SCT050 09/05 Q1004 BLU EGQS 191950Z 02021KT 9999 FEW020 BKN050 10/06 Q1007 RMK BLU EGSH 191950Z 21003KT CAVOK 08/07 Q1003 NOSIG EGSS 191950Z AUTO 24005KT 9999 NCD 08/06 Q1003 EGTE 191950Z 18005KT CAVOK 07/06 Q1004 EGUB 191950Z AUTO 16005KT 9999 // NCD 07/06 Q1004 EGUL 191956Z AUTO 21005KT 9999 SCT070 09/07 A2960 RMK AO2 SLP027 T00930067 $ EGUN 191956Z 21005KT 9999 SCT070 09/07 A2960 RMK AO2A SLP027 WND DATA ESTMD ALSTG ESTMD T00930067 $ EGVA 191956Z AUTO 00000KT 9999 CLR 07/06 A2964 RMK AO2 SLP042 T00690055 $ EGVN 191950Z 25001KT CAVOK 08/06 Q1003 NOSIG EGVN 191950Z 25001KT CAVOK 08/06 Q1003 NOSIG RMK BLU BLU EGWU 191950Z AUTO 28002KT 9999 // NCD 07/06 Q1004 EGXC 191950Z 26006KT CAVOK 10/09 Q1002 RMK BLU EGXT 191950Z AUTO 24005KT 9999 NCD 07/06 Q1002 EGYD 191950Z AUTO 26009KT 9999 // SCT041/// BKN060/// 10/08 Q1002 GBYD 192000Z 32005KT CAVOK 28/26 Q1009 KGNC 191955Z AUTO 04003KT 10SM CLR 23/02 A2997 RMK AO2 T02260018 EGCN 191950Z 27005KT CAVOK 08/07 Q1003 EGHQ 191950Z 31010KT 9999 FEW031 11/07 Q1005 EGOM 191950Z AUTO 30007KT 9999 FEW035/// BKN110/// 06/05 Q1003 EGOP 191950Z AUTO 32008KT 9999 // FEW050/// 10/09 Q1004 EGUW 191950Z AUTO 23004KT 9999 NCD 08/06 Q1003 EGVO 191950Z AUTO 22005KT 9999 NCD 08/06 Q1004 EGVP 191950Z AUTO 23002KT 9999 // NCD 08/06 Q1004 EGXE 191950Z AUTO 30010KT 9999 BKN021/// BKN038/// 09/07 Q1002 RERA EGXP 191950Z AUTO 31008KT 9999 // FEW016/// BKN050/// 09/08 Q1002 EGXS 191950Z AUTO 22008KT 9999 // BKN060/// 10/08 Q1001 EGXU 191950Z AUTO 32010KT 3900 // FEW007/// BKN049/// 08/07 Q1002 EGXV 191950Z AUTO 27007KT 9999 SCT130/// 09/07 Q1001 EGXW 191950Z 22005KT 9999 FEW015 SCT030 10/08 Q1002 TEMPO SCT015 RMK BLU TEMPO WHT EGXZ 191950Z AUTO 30010KT 9999 -RA BKN018/// BKN060/// 09/07 Q1002 EGYM 191950Z AUTO 21005KT 9999 OVC070/// 09/08 Q1002